<?xml version="1.0" encoding="UTF-8" standalone="no" ?>
<gpx xmlns="http://www.topografix.com/GPX/1/1" xmlns:xsi="http://www.w3.org/2001/XMLSchema-instance" xsi:schemaLocation="http://www.topografix.com/GPX/1/1 http://www.topografix.com/GPX/1/1/gpx.xsd" version="1.1" creator="VisuGPX - https://www.visugpx.com">
  <metadata>
    <name>Suède</name>
  </metadata>
  <trk>
    <name><![CDATA[Tour d'Europe: étape 098]]></name>
    <trkseg>
      <trkpt lat="62.93166" lon="18.25593">
        <ele>37.857968</ele>
        <time>2020-10-04T07:58:19.073Z</time>
      </trkpt>
      <trkpt lat="62.9333" lon="18.25326">
        <ele>46.829444</ele>
        <time>2020-10-04T07:59:50.079Z</time>
      </trkpt>
      <trkpt lat="62.93379" lon="18.25379">
        <ele>54.664766</ele>
        <time>2020-10-04T08:04:42.077Z</time>
      </trkpt>
      <trkpt lat="62.93378" lon="18.25797">
        <ele>58.709096</ele>
        <time>2020-10-04T08:06:05.095Z</time>
      </trkpt>
      <trkpt lat="62.9329" lon="18.26216">
        <ele>58.058569</ele>
        <time>2020-10-04T08:07:22.067Z</time>
      </trkpt>
      <trkpt lat="62.93416" lon="18.26635">
        <ele>47.257086</ele>
        <time>2020-10-04T08:08:16.062Z</time>
      </trkpt>
      <trkpt lat="62.93582" lon="18.264">
        <ele>60.895106</ele>
        <time>2020-10-04T08:10:08.084Z</time>
      </trkpt>
      <trkpt lat="62.93747" lon="18.26167">
        <ele>75.627196</ele>
        <time>2020-10-04T08:12:11.064Z</time>
      </trkpt>
      <trkpt lat="62.9394" lon="18.25957">
        <ele>80.946732</ele>
        <time>2020-10-04T08:13:29.079Z</time>
      </trkpt>
      <trkpt lat="62.94169" lon="18.25786">
        <ele>65.778077</ele>
        <time>2020-10-04T08:13:51.081Z</time>
      </trkpt>
      <trkpt lat="62.94341" lon="18.25471">
        <ele>61.837491</ele>
        <time>2020-10-04T08:14:56.067Z</time>
      </trkpt>
      <trkpt lat="62.94351" lon="18.25055">
        <ele>55.803038</ele>
        <time>2020-10-04T08:15:45.106Z</time>
      </trkpt>
      <trkpt lat="62.94195" lon="18.24694">
        <ele>45.268817</ele>
        <time>2020-10-04T08:16:05.113Z</time>
      </trkpt>
      <trkpt lat="62.9399" lon="18.24454">
        <ele>43.332411</ele>
        <time>2020-10-04T08:16:45.115Z</time>
      </trkpt>
      <trkpt lat="62.93846" lon="18.24116">
        <ele>44.889222</ele>
        <time>2020-10-04T08:17:39.108Z</time>
      </trkpt>
      <trkpt lat="62.937" lon="18.23785">
        <ele>52.318331</ele>
        <time>2020-10-04T08:19:06.096Z</time>
      </trkpt>
      <trkpt lat="62.93555" lon="18.2348">
        <ele>61.398978</ele>
        <time>2020-10-04T08:20:36.089Z</time>
      </trkpt>
      <trkpt lat="62.93461" lon="18.23114">
        <ele>66.063491</ele>
        <time>2020-10-04T08:22:25.078Z</time>
      </trkpt>
      <trkpt lat="62.93538" lon="18.22597">
        <ele>63.549743</ele>
        <time>2020-10-04T08:23:17.077Z</time>
      </trkpt>
      <trkpt lat="62.9345" lon="18.22057">
        <ele>61.951951</ele>
        <time>2020-10-04T08:24:01.072Z</time>
      </trkpt>
      <trkpt lat="62.93292" lon="18.21791">
        <ele>66.517828</ele>
        <time>2020-10-04T08:24:44.089Z</time>
      </trkpt>
      <trkpt lat="62.93109" lon="18.21576">
        <ele>67.558201</ele>
        <time>2020-10-04T08:25:25.107Z</time>
      </trkpt>
      <trkpt lat="62.92911" lon="18.21349">
        <ele>74.764897</ele>
        <time>2020-10-04T08:26:24.090Z</time>
      </trkpt>
      <trkpt lat="62.92722" lon="18.2121">
        <ele>76.61719</ele>
        <time>2020-10-04T08:27:44.085Z</time>
      </trkpt>
      <trkpt lat="62.92536" lon="18.21099">
        <ele>86.920583</ele>
        <time>2020-10-04T08:29:42.087Z</time>
      </trkpt>
      <trkpt lat="62.92444" lon="18.20715">
        <ele>93.997723</ele>
        <time>2020-10-04T08:31:25.082Z</time>
      </trkpt>
      <trkpt lat="62.9231" lon="18.20368">
        <ele>103.250478</ele>
        <time>2020-10-04T08:32:59.099Z</time>
      </trkpt>
      <trkpt lat="62.92155" lon="18.20078">
        <ele>105.000131</ele>
        <time>2020-10-04T08:34:30.089Z</time>
      </trkpt>
      <trkpt lat="62.92158" lon="18.19549">
        <ele>95.096444</ele>
        <time>2020-10-04T08:35:03.080Z</time>
      </trkpt>
      <trkpt lat="62.9225" lon="18.19136">
        <ele>101.470224</ele>
        <time>2020-10-04T08:35:58.088Z</time>
      </trkpt>
      <trkpt lat="62.92315" lon="18.18704">
        <ele>106.723307</ele>
        <time>2020-10-04T08:37:16.123Z</time>
      </trkpt>
      <trkpt lat="62.9235" lon="18.18261">
        <ele>106.973049</ele>
        <time>2020-10-04T08:37:59.076Z</time>
      </trkpt>
      <trkpt lat="62.92227" lon="18.17841">
        <ele>111.615024</ele>
        <time>2020-10-04T08:38:54.087Z</time>
      </trkpt>
      <trkpt lat="62.92042" lon="18.17673">
        <ele>121.032741</ele>
        <time>2020-10-04T08:39:55.112Z</time>
      </trkpt>
      <trkpt lat="62.91933" lon="18.17323">
        <ele>130.960499</ele>
        <time>2020-10-04T08:41:51.091Z</time>
      </trkpt>
      <trkpt lat="62.91869" lon="18.16927">
        <ele>144.773679</ele>
        <time>2020-10-04T08:43:55.096Z</time>
      </trkpt>
      <trkpt lat="62.917" lon="18.16639">
        <ele>157.560433</ele>
        <time>2020-10-04T08:45:22.093Z</time>
      </trkpt>
      <trkpt lat="62.91506" lon="18.16649">
        <ele>169.426538</ele>
        <time>2020-10-04T08:47:26.114Z</time>
      </trkpt>
      <trkpt lat="62.91315" lon="18.1667">
        <ele>186.523114</ele>
        <time>2020-10-04T08:49:37.097Z</time>
      </trkpt>
      <trkpt lat="62.91151" lon="18.16308">
        <ele>182.161156</ele>
        <time>2020-10-04T08:50:30.089Z</time>
      </trkpt>
      <trkpt lat="62.90952" lon="18.16056">
        <ele>165.074557</ele>
        <time>2020-10-04T08:50:50.081Z</time>
      </trkpt>
      <trkpt lat="62.90772" lon="18.15693">
        <ele>145.951824</ele>
        <time>2020-10-04T08:51:10.144Z</time>
      </trkpt>
      <trkpt lat="62.90695" lon="18.15179">
        <ele>128.419188</ele>
        <time>2020-10-04T08:51:30.097Z</time>
      </trkpt>
      <trkpt lat="62.9052" lon="18.1477">
        <ele>115.300918</ele>
        <time>2020-10-04T08:51:50.101Z</time>
      </trkpt>
      <trkpt lat="62.90469" lon="18.14214">
        <ele>99.4243</ele>
        <time>2020-10-04T08:52:10.105Z</time>
      </trkpt>
      <trkpt lat="62.90256" lon="18.13917">
        <ele>79.340286</ele>
        <time>2020-10-04T08:52:30.097Z</time>
      </trkpt>
      <trkpt lat="62.90015" lon="18.14113">
        <ele>64.733717</ele>
        <time>2020-10-04T08:52:51.099Z</time>
      </trkpt>
      <trkpt lat="62.89773" lon="18.14347">
        <ele>60.206596</ele>
        <time>2020-10-04T08:53:29.085Z</time>
      </trkpt>
      <trkpt lat="62.89574" lon="18.14414">
        <ele>69.841321</ele>
        <time>2020-10-04T08:54:37.082Z</time>
      </trkpt>
      <trkpt lat="62.89409" lon="18.14081">
        <ele>68.981091</ele>
        <time>2020-10-04T08:55:21.119Z</time>
      </trkpt>
      <trkpt lat="62.89407" lon="18.1366">
        <ele>73.258713</ele>
        <time>2020-10-04T08:56:41.082Z</time>
      </trkpt>
      <trkpt lat="62.89458" lon="18.13269">
        <ele>81.013507</ele>
        <time>2020-10-04T08:58:12.107Z</time>
      </trkpt>
      <trkpt lat="62.89312" lon="18.12754">
        <ele>78.025804</ele>
        <time>2020-10-04T08:58:51.093Z</time>
      </trkpt>
      <trkpt lat="62.89277" lon="18.12285">
        <ele>77.443943</ele>
        <time>2020-10-04T08:59:40.084Z</time>
      </trkpt>
      <trkpt lat="62.89166" lon="18.11775">
        <ele>73.92126</ele>
        <time>2020-10-04T09:00:25.103Z</time>
      </trkpt>
      <trkpt lat="62.88987" lon="18.11468">
        <ele>77.620854</ele>
        <time>2020-10-04T09:01:19.089Z</time>
      </trkpt>
      <trkpt lat="62.88767" lon="18.11374">
        <ele>70.817592</ele>
        <time>2020-10-04T09:02:01.103Z</time>
      </trkpt>
      <trkpt lat="62.88586" lon="18.11066">
        <ele>61.100545</ele>
        <time>2020-10-04T09:02:35.092Z</time>
      </trkpt>
      <trkpt lat="62.88513" lon="18.10629">
        <ele>55.099602</ele>
        <time>2020-10-04T09:02:55.094Z</time>
      </trkpt>
      <trkpt lat="62.88414" lon="18.1024">
        <ele>49.168296</ele>
        <time>2020-10-04T09:03:15.097Z</time>
      </trkpt>
      <trkpt lat="62.88235" lon="18.09948">
        <ele>48.985194</ele>
        <time>2020-10-04T09:03:55.099Z</time>
      </trkpt>
      <trkpt lat="62.88023" lon="18.09815">
        <ele>47.201553</ele>
        <time>2020-10-04T09:04:50.107Z</time>
      </trkpt>
      <trkpt lat="62.87821" lon="18.09583">
        <ele>48.525258</ele>
        <time>2020-10-04T09:05:32.091Z</time>
      </trkpt>
      <trkpt lat="62.87678" lon="18.09141">
        <ele>49.055958</ele>
        <time>2020-10-04T09:06:16.086Z</time>
      </trkpt>
      <trkpt lat="62.87497" lon="18.08867">
        <ele>41.999055</ele>
        <time>2020-10-04T09:06:56.089Z</time>
      </trkpt>
      <trkpt lat="62.87295" lon="18.08713">
        <ele>41.956334</ele>
        <time>2020-10-04T09:07:36.090Z</time>
      </trkpt>
      <trkpt lat="62.87165" lon="18.08474">
        <ele>43.884214</ele>
        <time>2020-10-04T09:08:21.093Z</time>
      </trkpt>
      <trkpt lat="62.87224" lon="18.08004">
        <ele>38.927172</ele>
        <time>2020-10-04T09:09:03.094Z</time>
      </trkpt>
      <trkpt lat="62.87176" lon="18.07551">
        <ele>43.734754</ele>
        <time>2020-10-04T09:09:50.108Z</time>
      </trkpt>
      <trkpt lat="62.87059" lon="18.07127">
        <ele>46.346043</ele>
        <time>2020-10-04T09:10:45.097Z</time>
      </trkpt>
      <trkpt lat="62.87078" lon="18.06691">
        <ele>42.043377</ele>
        <time>2020-10-04T09:11:51.089Z</time>
      </trkpt>
      <trkpt lat="62.86995" lon="18.06196">
        <ele>40.827976</ele>
        <time>2020-10-04T09:12:31.136Z</time>
      </trkpt>
      <trkpt lat="62.86882" lon="18.05781">
        <ele>47.887175</ele>
        <time>2020-10-04T09:13:25.122Z</time>
      </trkpt>
      <trkpt lat="62.86807" lon="18.05345">
        <ele>53.193383</ele>
        <time>2020-10-04T09:14:36.121Z</time>
      </trkpt>
      <trkpt lat="62.86609" lon="18.05083">
        <ele>51.923255</ele>
        <time>2020-10-04T09:15:22.106Z</time>
      </trkpt>
      <trkpt lat="62.8641" lon="18.04754">
        <ele>46.033577</ele>
        <time>2020-10-04T09:16:02.097Z</time>
      </trkpt>
      <trkpt lat="62.86281" lon="18.0437">
        <ele>48.061238</ele>
        <time>2020-10-04T09:16:51.117Z</time>
      </trkpt>
      <trkpt lat="62.86187" lon="18.03953">
        <ele>51.906137</ele>
        <time>2020-10-04T09:18:05.102Z</time>
      </trkpt>
      <trkpt lat="62.86092" lon="18.03481">
        <ele>46.243661</ele>
        <time>2020-10-04T09:18:47.107Z</time>
      </trkpt>
      <trkpt lat="62.86005" lon="18.02897">
        <ele>41.791497</ele>
        <time>2020-10-04T09:19:27.089Z</time>
      </trkpt>
      <trkpt lat="62.85909" lon="18.02518">
        <ele>47.058211</ele>
        <time>2020-10-04T09:20:24.095Z</time>
      </trkpt>
      <trkpt lat="62.85696" lon="18.02415">
        <ele>43.684188</ele>
        <time>2020-10-04T09:21:24.102Z</time>
      </trkpt>
      <trkpt lat="62.85566" lon="18.02048">
        <ele>44.426554</ele>
        <time>2020-10-04T09:22:18.102Z</time>
      </trkpt>
      <trkpt lat="62.85471" lon="18.01608">
        <ele>43.577358</ele>
        <time>2020-10-04T09:22:58.098Z</time>
      </trkpt>
      <trkpt lat="62.85307" lon="18.01225">
        <ele>45.827133</ele>
        <time>2020-10-04T09:23:54.131Z</time>
      </trkpt>
      <trkpt lat="62.85159" lon="18.00938">
        <ele>51.483075</ele>
        <time>2020-10-04T09:25:24.112Z</time>
      </trkpt>
      <trkpt lat="62.84958" lon="18.00695">
        <ele>50.604588</ele>
        <time>2020-10-04T09:26:24.097Z</time>
      </trkpt>
      <trkpt lat="62.84791" lon="18.00367">
        <ele>59.001365</ele>
        <time>2020-10-04T09:27:31.117Z</time>
      </trkpt>
      <trkpt lat="62.8466" lon="18.00037">
        <ele>64.886487</ele>
        <time>2020-10-04T09:28:31.106Z</time>
      </trkpt>
      <trkpt lat="62.84478" lon="17.99688">
        <ele>56.445874</ele>
        <time>2020-10-04T09:29:28.119Z</time>
      </trkpt>
      <trkpt lat="62.84308" lon="17.9949">
        <ele>51.36057</ele>
        <time>2020-10-04T09:30:08.103Z</time>
      </trkpt>
      <trkpt lat="62.84111" lon="17.99267">
        <ele>51.664978</ele>
        <time>2020-10-04T09:30:48.138Z</time>
      </trkpt>
      <trkpt lat="62.83996" lon="17.98848">
        <ele>57.589593</ele>
        <time>2020-10-04T09:31:39.094Z</time>
      </trkpt>
      <trkpt lat="62.83892" lon="17.98421">
        <ele>57.870404</ele>
        <time>2020-10-04T09:32:29.094Z</time>
      </trkpt>
      <trkpt lat="62.83729" lon="17.98079">
        <ele>52.8151</ele>
        <time>2020-10-04T09:33:26.131Z</time>
      </trkpt>
      <trkpt lat="62.83564" lon="17.97758">
        <ele>38.470845</ele>
        <time>2020-10-04T09:33:49.097Z</time>
      </trkpt>
      <trkpt lat="62.83412" lon="17.97324">
        <ele>28.7351</ele>
        <time>2020-10-04T09:34:18.104Z</time>
      </trkpt>
      <trkpt lat="62.8327" lon="17.96989">
        <ele>34.646449</ele>
        <time>2020-10-04T09:35:13.129Z</time>
      </trkpt>
      <trkpt lat="62.83056" lon="17.97037">
        <ele>37.027418</ele>
        <time>2020-10-04T09:36:14.112Z</time>
      </trkpt>
      <trkpt lat="62.82837" lon="17.96923">
        <ele>35.455471</ele>
        <time>2020-10-04T09:37:11.113Z</time>
      </trkpt>
      <trkpt lat="62.82624" lon="17.96965">
        <ele>38.997964</ele>
        <time>2020-10-04T09:38:01.102Z</time>
      </trkpt>
      <trkpt lat="62.82388" lon="17.97057">
        <ele>38.423494</ele>
        <time>2020-10-04T09:38:47.112Z</time>
      </trkpt>
      <trkpt lat="62.82185" lon="17.96928">
        <ele>41.573197</ele>
        <time>2020-10-04T09:39:50.101Z</time>
      </trkpt>
      <trkpt lat="62.82051" lon="17.96631">
        <ele>60.713334</ele>
        <time>2020-10-04T09:41:40.101Z</time>
      </trkpt>
      <trkpt lat="62.82017" lon="17.96193">
        <ele>64.326986</ele>
        <time>2020-10-04T09:42:59.115Z</time>
      </trkpt>
      <trkpt lat="62.81912" lon="17.95738">
        <ele>52.885047</ele>
        <time>2020-10-04T09:43:34.103Z</time>
      </trkpt>
      <trkpt lat="62.81721" lon="17.95391">
        <ele>42.010923</ele>
        <time>2020-10-04T09:44:22.107Z</time>
      </trkpt>
      <trkpt lat="62.81476" lon="17.95134">
        <ele>33.683228</ele>
        <time>2020-10-04T09:45:02.103Z</time>
      </trkpt>
      <trkpt lat="62.81271" lon="17.95298">
        <ele>36.921626</ele>
        <time>2020-10-04T09:45:50.107Z</time>
      </trkpt>
      <trkpt lat="62.81107" lon="17.95577">
        <ele>42.266144</ele>
        <time>2020-10-04T09:47:14.097Z</time>
      </trkpt>
      <trkpt lat="62.81045" lon="17.95836">
        <ele>50.135295</ele>
        <time>2020-10-04T09:48:33.139Z</time>
      </trkpt>
      <trkpt lat="62.80908" lon="17.95511">
        <ele>66.194436</ele>
        <time>2020-10-04T09:50:02.100Z</time>
      </trkpt>
      <trkpt lat="62.80752" lon="17.95236">
        <ele>70.494812</ele>
        <time>2020-10-04T09:51:27.162Z</time>
      </trkpt>
      <trkpt lat="62.806" lon="17.95072">
        <ele>69.323052</ele>
        <time>2020-10-04T09:56:15.147Z</time>
      </trkpt>
      <trkpt lat="62.80419" lon="17.94848">
        <ele>73.508208</ele>
        <time>2020-10-04T09:57:16.130Z</time>
      </trkpt>
      <trkpt lat="62.80252" lon="17.94576">
        <ele>77.396078</ele>
        <time>2020-10-04T09:58:16.137Z</time>
      </trkpt>
      <trkpt lat="62.80067" lon="17.94277">
        <ele>78.899074</ele>
        <time>2020-10-04T09:59:15.103Z</time>
      </trkpt>
      <trkpt lat="62.79891" lon="17.93986">
        <ele>79.732885</ele>
        <time>2020-10-04T10:00:01.108Z</time>
      </trkpt>
      <trkpt lat="62.79693" lon="17.9367">
        <ele>77.957842</ele>
        <time>2020-10-04T10:00:43.137Z</time>
      </trkpt>
      <trkpt lat="62.79481" lon="17.93328">
        <ele>73.588502</ele>
        <time>2020-10-04T10:01:23.170Z</time>
      </trkpt>
      <trkpt lat="62.79227" lon="17.92914">
        <ele>66.384025</ele>
        <time>2020-10-04T10:02:03.137Z</time>
      </trkpt>
      <trkpt lat="62.79049" lon="17.92611">
        <ele>59.310317</ele>
        <time>2020-10-04T10:02:28.135Z</time>
      </trkpt>
      <trkpt lat="62.78835" lon="17.92262">
        <ele>55.54489</ele>
        <time>2020-10-04T10:03:08.123Z</time>
      </trkpt>
      <trkpt lat="62.78647" lon="17.9203">
        <ele>61.63295</ele>
        <time>2020-10-04T10:03:54.103Z</time>
      </trkpt>
      <trkpt lat="62.78508" lon="17.91827">
        <ele>71.546914</ele>
        <time>2020-10-04T10:05:09.132Z</time>
      </trkpt>
      <trkpt lat="62.7866" lon="17.91702">
        <ele>79.239181</ele>
        <time>2020-10-04T10:06:17.107Z</time>
      </trkpt>
      <trkpt lat="62.78461" lon="17.91756">
        <ele>87.473126</ele>
        <time>2020-10-04T10:07:39.134Z</time>
      </trkpt>
      <trkpt lat="62.78251" lon="17.91814">
        <ele>87.349509</ele>
        <time>2020-10-04T10:08:39.152Z</time>
      </trkpt>
      <trkpt lat="62.78017" lon="17.91852">
        <ele>85.692244</ele>
        <time>2020-10-04T10:09:41.124Z</time>
      </trkpt>
      <trkpt lat="62.77801" lon="17.91869">
        <ele>86.404877</ele>
        <time>2020-10-04T10:10:41.107Z</time>
      </trkpt>
      <trkpt lat="62.77558" lon="17.91786">
        <ele>79.494324</ele>
        <time>2020-10-04T10:11:21.121Z</time>
      </trkpt>
      <trkpt lat="62.77356" lon="17.91723">
        <ele>66.807102</ele>
        <time>2020-10-04T10:12:01.103Z</time>
      </trkpt>
      <trkpt lat="62.77171" lon="17.91903">
        <ele>63.085727</ele>
        <time>2020-10-04T10:12:52.119Z</time>
      </trkpt>
      <trkpt lat="62.76993" lon="17.91903">
        <ele>66.285112</ele>
        <time>2020-10-04T10:13:45.157Z</time>
      </trkpt>
      <trkpt lat="62.76905" lon="17.92301">
        <ele>73.062192</ele>
        <time>2020-10-04T10:15:04.113Z</time>
      </trkpt>
      <trkpt lat="62.768" lon="17.92702">
        <ele>77.593322</ele>
        <time>2020-10-04T10:16:05.106Z</time>
      </trkpt>
      <trkpt lat="62.76706" lon="17.93245">
        <ele>66.324859</ele>
        <time>2020-10-04T10:16:46.113Z</time>
      </trkpt>
      <trkpt lat="62.76573" lon="17.93787">
        <ele>43.166595</ele>
        <time>2020-10-04T10:17:26.137Z</time>
      </trkpt>
      <trkpt lat="62.76399" lon="17.94037">
        <ele>49.485496</ele>
        <time>2020-10-04T10:18:48.123Z</time>
      </trkpt>
      <trkpt lat="62.76216" lon="17.94319">
        <ele>52.645641</ele>
        <time>2020-10-04T10:19:48.133Z</time>
      </trkpt>
      <trkpt lat="62.76054" lon="17.94616">
        <ele>56.920141</ele>
        <time>2020-10-04T10:20:48.131Z</time>
      </trkpt>
      <trkpt lat="62.75907" lon="17.94955">
        <ele>53.153853</ele>
        <time>2020-10-04T10:21:38.111Z</time>
      </trkpt>
      <trkpt lat="62.7573" lon="17.95195">
        <ele>59.965789</ele>
        <time>2020-10-04T10:22:55.103Z</time>
      </trkpt>
      <trkpt lat="62.75559" lon="17.9543">
        <ele>64.004134</ele>
        <time>2020-10-04T10:24:20.115Z</time>
      </trkpt>
      <trkpt lat="62.75374" lon="17.95654">
        <ele>60.369433</ele>
        <time>2020-10-04T10:25:08.110Z</time>
      </trkpt>
      <trkpt lat="62.75161" lon="17.95557">
        <ele>61.004713</ele>
        <time>2020-10-04T10:26:00.129Z</time>
      </trkpt>
      <trkpt lat="62.74952" lon="17.95535">
        <ele>58.540441</ele>
        <time>2020-10-04T10:26:43.139Z</time>
      </trkpt>
      <trkpt lat="62.74704" lon="17.95566">
        <ele>64.262683</ele>
        <time>2020-10-04T10:27:57.106Z</time>
      </trkpt>
      <trkpt lat="62.74536" lon="17.95815">
        <ele>73.433082</ele>
        <time>2020-10-04T10:29:27.175Z</time>
      </trkpt>
      <trkpt lat="62.74271" lon="17.95909">
        <ele>61.252606</ele>
        <time>2020-10-04T10:55:02.808Z</time>
      </trkpt>
      <trkpt lat="62.74075" lon="17.95729">
        <ele>56.024207</ele>
        <time>2020-10-04T10:56:06.816Z</time>
      </trkpt>
      <trkpt lat="62.73987" lon="17.95332">
        <ele>59.917689</ele>
        <time>2020-10-04T10:57:21.829Z</time>
      </trkpt>
      <trkpt lat="62.73919" lon="17.94884">
        <ele>64.440832</ele>
        <time>2020-10-04T10:58:19.825Z</time>
      </trkpt>
      <trkpt lat="62.73864" lon="17.94448">
        <ele>66.376705</ele>
        <time>2020-10-04T10:59:01.824Z</time>
      </trkpt>
      <trkpt lat="62.73745" lon="17.94072">
        <ele>64.21691</ele>
        <time>2020-10-04T11:00:01.822Z</time>
      </trkpt>
      <trkpt lat="62.73574" lon="17.9422">
        <ele>49.427992</ele>
        <time>2020-10-04T11:00:45.805Z</time>
      </trkpt>
      <trkpt lat="62.73385" lon="17.94167">
        <ele>39.355477</ele>
        <time>2020-10-04T11:01:05.814Z</time>
      </trkpt>
      <trkpt lat="62.73136" lon="17.94209">
        <ele>37.134796</ele>
        <time>2020-10-04T11:01:45.811Z</time>
      </trkpt>
      <trkpt lat="62.72989" lon="17.94578">
        <ele>44.940454</ele>
        <time>2020-10-04T11:02:35.828Z</time>
      </trkpt>
      <trkpt lat="62.72835" lon="17.94969">
        <ele>40.989369</ele>
        <time>2020-10-04T11:03:25.806Z</time>
      </trkpt>
      <trkpt lat="62.72708" lon="17.95344">
        <ele>39.762734</ele>
        <time>2020-10-04T11:04:08.827Z</time>
      </trkpt>
      <trkpt lat="62.72542" lon="17.95667">
        <ele>37.862878</ele>
        <time>2020-10-04T11:05:02.803Z</time>
      </trkpt>
      <trkpt lat="62.72359" lon="17.95952">
        <ele>35.96224</ele>
        <time>2020-10-04T11:05:54.820Z</time>
      </trkpt>
      <trkpt lat="62.72192" lon="17.96259">
        <ele>38.465321</ele>
        <time>2020-10-04T11:07:01.828Z</time>
      </trkpt>
      <trkpt lat="62.71965" lon="17.96466">
        <ele>48.531552</ele>
        <time>2020-10-04T11:08:11.821Z</time>
      </trkpt>
      <trkpt lat="62.7179" lon="17.96602">
        <ele>65.692803</ele>
        <time>2020-10-04T11:10:32.836Z</time>
      </trkpt>
      <trkpt lat="62.71624" lon="17.96931">
        <ele>56.540843</ele>
        <time>2020-10-04T11:11:38.845Z</time>
      </trkpt>
      <trkpt lat="62.71499" lon="17.97377">
        <ele>37.205366</ele>
        <time>2020-10-04T11:12:00.818Z</time>
      </trkpt>
      <trkpt lat="62.71326" lon="17.97644">
        <ele>22.696812</ele>
        <time>2020-10-04T11:12:21.845Z</time>
      </trkpt>
      <trkpt lat="62.71156" lon="17.97972">
        <ele>34.860142</ele>
        <time>2020-10-04T11:13:22.814Z</time>
      </trkpt>
      <trkpt lat="62.70998" lon="17.98278">
        <ele>41.222547</ele>
        <time>2020-10-04T11:14:18.815Z</time>
      </trkpt>
      <trkpt lat="62.70795" lon="17.98454">
        <ele>34.029574</ele>
        <time>2020-10-04T11:15:12.809Z</time>
      </trkpt>
      <trkpt lat="62.70579" lon="17.98608">
        <ele>35.998084</ele>
        <time>2020-10-04T11:16:04.826Z</time>
      </trkpt>
      <trkpt lat="62.70372" lon="17.98707">
        <ele>40.834383</ele>
        <time>2020-10-04T11:17:11.827Z</time>
      </trkpt>
      <trkpt lat="62.70164" lon="17.98645">
        <ele>43.030279</ele>
        <time>2020-10-04T11:18:31.804Z</time>
      </trkpt>
      <trkpt lat="62.6993" lon="17.98577">
        <ele>42.834241</ele>
        <time>2020-10-04T11:19:22.822Z</time>
      </trkpt>
      <trkpt lat="62.69682" lon="17.98499">
        <ele>40.839812</ele>
        <time>2020-10-04T11:20:04.824Z</time>
      </trkpt>
      <trkpt lat="62.69498" lon="17.98282">
        <ele>44.983929</ele>
        <time>2020-10-04T11:21:16.820Z</time>
      </trkpt>
      <trkpt lat="62.69277" lon="17.97988">
        <ele>40.061371</ele>
        <time>2020-10-04T11:22:00.850Z</time>
      </trkpt>
      <trkpt lat="62.69048" lon="17.97878">
        <ele>40.650336</ele>
        <time>2020-10-04T11:22:48.833Z</time>
      </trkpt>
      <trkpt lat="62.68866" lon="17.97691">
        <ele>40.239635</ele>
        <time>2020-10-04T11:23:44.869Z</time>
      </trkpt>
      <trkpt lat="62.68688" lon="17.97444">
        <ele>41.11581</ele>
        <time>2020-10-04T11:24:40.808Z</time>
      </trkpt>
      <trkpt lat="62.68506" lon="17.97205">
        <ele>45.211742</ele>
        <time>2020-10-04T11:25:35.840Z</time>
      </trkpt>
      <trkpt lat="62.68357" lon="17.96934">
        <ele>49.981489</ele>
        <time>2020-10-04T11:26:37.856Z</time>
      </trkpt>
      <trkpt lat="62.68161" lon="17.96691">
        <ele>44.964016</ele>
        <time>2020-10-04T11:27:28.850Z</time>
      </trkpt>
      <trkpt lat="62.67971" lon="17.96495">
        <ele>39.876524</ele>
        <time>2020-10-04T11:27:55.833Z</time>
      </trkpt>
      <trkpt lat="62.67738" lon="17.96332">
        <ele>38.843308</ele>
        <time>2020-10-04T11:28:41.811Z</time>
      </trkpt>
      <trkpt lat="62.6753" lon="17.96129">
        <ele>39.169118</ele>
        <time>2020-10-04T11:29:23.832Z</time>
      </trkpt>
      <trkpt lat="62.67332" lon="17.95887">
        <ele>42.863586</ele>
        <time>2020-10-04T11:30:34.868Z</time>
      </trkpt>
      <trkpt lat="62.67246" lon="17.95475">
        <ele>41.870911</ele>
        <time>2020-10-04T11:31:33.840Z</time>
      </trkpt>
      <trkpt lat="62.67172" lon="17.94933">
        <ele>30.114053</ele>
        <time>2020-10-04T11:32:04.820Z</time>
      </trkpt>
      <trkpt lat="62.67221" lon="17.9439">
        <ele>28.932497</ele>
        <time>2020-10-04T11:32:44.834Z</time>
      </trkpt>
      <trkpt lat="62.67339" lon="17.93955">
        <ele>33.765096</ele>
        <time>2020-10-04T11:33:31.814Z</time>
      </trkpt>
      <trkpt lat="62.67471" lon="17.93624">
        <ele>39.749491</ele>
        <time>2020-10-04T11:34:51.819Z</time>
      </trkpt>
      <trkpt lat="62.67594" lon="17.93229">
        <ele>42.079135</ele>
        <time>2020-10-04T11:35:51.822Z</time>
      </trkpt>
      <trkpt lat="62.67739" lon="17.92781">
        <ele>34.113785</ele>
        <time>2020-10-04T11:36:32.856Z</time>
      </trkpt>
      <trkpt lat="62.67884" lon="17.92385">
        <ele>27.272994</ele>
        <time>2020-10-04T11:37:12.823Z</time>
      </trkpt>
      <trkpt lat="62.67896" lon="17.91948">
        <ele>28.818853</ele>
        <time>2020-10-04T11:37:52.840Z</time>
      </trkpt>
      <trkpt lat="62.67742" lon="17.91678">
        <ele>35.59237</ele>
        <time>2020-10-04T11:39:01.830Z</time>
      </trkpt>
      <trkpt lat="62.67629" lon="17.9135">
        <ele>48.530546</ele>
        <time>2020-10-04T11:40:43.855Z</time>
      </trkpt>
      <trkpt lat="62.67623" lon="17.90897">
        <ele>53.06563</ele>
        <time>2020-10-04T11:42:04.831Z</time>
      </trkpt>
      <trkpt lat="62.67729" lon="17.90497">
        <ele>53.382187</ele>
        <time>2020-10-04T11:43:15.811Z</time>
      </trkpt>
      <trkpt lat="62.67882" lon="17.90127">
        <ele>49.987617</ele>
        <time>2020-10-04T11:43:55.827Z</time>
      </trkpt>
      <trkpt lat="62.68024" lon="17.89792">
        <ele>50.41711</ele>
        <time>2020-10-04T11:44:41.821Z</time>
      </trkpt>
      <trkpt lat="62.68195" lon="17.894">
        <ele>44.569056</ele>
        <time>2020-10-04T11:45:17.851Z</time>
      </trkpt>
      <trkpt lat="62.68293" lon="17.88999">
        <ele>46.266542</ele>
        <time>2020-10-04T11:46:17.840Z</time>
      </trkpt>
      <trkpt lat="62.68253" lon="17.88547">
        <ele>56.235817</ele>
        <time>2020-10-04T11:47:46.810Z</time>
      </trkpt>
      <trkpt lat="62.68187" lon="17.88047">
        <ele>55.893711</ele>
        <time>2020-10-04T11:48:45.815Z</time>
      </trkpt>
      <trkpt lat="62.68047" lon="17.87641">
        <ele>47.804405</ele>
        <time>2020-10-04T11:49:25.840Z</time>
      </trkpt>
      <trkpt lat="62.67878" lon="17.8727">
        <ele>32.344478</ele>
        <time>2020-10-04T11:49:45.823Z</time>
      </trkpt>
      <trkpt lat="62.6776" lon="17.8681">
        <ele>25.025098</ele>
        <time>2020-10-04T11:50:21.829Z</time>
      </trkpt>
      <trkpt lat="62.67899" lon="17.86468">
        <ele>29.061224</ele>
        <time>2020-10-04T11:51:16.829Z</time>
      </trkpt>
      <trkpt lat="62.68034" lon="17.86146">
        <ele>35.625306</ele>
        <time>2020-10-04T11:52:29.815Z</time>
      </trkpt>
      <trkpt lat="62.68171" lon="17.85794">
        <ele>35.845322</ele>
        <time>2020-10-04T11:53:29.829Z</time>
      </trkpt>
      <trkpt lat="62.68195" lon="17.85251">
        <ele>25.795509</ele>
        <time>2020-10-04T11:54:13.824Z</time>
      </trkpt>
      <trkpt lat="62.68036" lon="17.84982">
        <ele>29.146536</ele>
        <time>2020-10-04T11:54:53.843Z</time>
      </trkpt>
      <trkpt lat="62.68005" lon="17.84852">
        <ele>32.247659</ele>
        <time>2020-10-04T11:58:07.845Z</time>
      </trkpt>
      <trkpt lat="62.67892" lon="17.84553">
        <ele>36.768375</ele>
        <time>2020-10-04T11:59:26.834Z</time>
      </trkpt>
      <trkpt lat="62.67682" lon="17.84292">
        <ele>32.327556</ele>
        <time>2020-10-04T12:00:13.821Z</time>
      </trkpt>
      <trkpt lat="62.67508" lon="17.84098">
        <ele>32.334905</ele>
        <time>2020-10-04T12:00:53.850Z</time>
      </trkpt>
      <trkpt lat="62.67293" lon="17.83962">
        <ele>34.164105</ele>
        <time>2020-10-04T12:01:42.821Z</time>
      </trkpt>
      <trkpt lat="62.67071" lon="17.83995">
        <ele>33.857119</ele>
        <time>2020-10-04T12:02:43.850Z</time>
      </trkpt>
      <trkpt lat="62.66867" lon="17.84086">
        <ele>32.185911</ele>
        <time>2020-10-04T12:03:30.829Z</time>
      </trkpt>
      <trkpt lat="62.66689" lon="17.84319">
        <ele>32.036398</ele>
        <time>2020-10-04T12:04:17.831Z</time>
      </trkpt>
      <trkpt lat="62.66507" lon="17.84425">
        <ele>48.268524</ele>
        <time>2020-10-04T12:05:48.843Z</time>
      </trkpt>
      <trkpt lat="62.66339" lon="17.84219">
        <ele>67.528044</ele>
        <time>2020-10-04T12:07:52.828Z</time>
      </trkpt>
      <trkpt lat="62.66159" lon="17.8424">
        <ele>80.193452</ele>
        <time>2020-10-04T12:09:54.866Z</time>
      </trkpt>
      <trkpt lat="62.65974" lon="17.84162">
        <ele>93.439905</ele>
        <time>2020-10-04T12:12:08.852Z</time>
      </trkpt>
      <trkpt lat="62.65778" lon="17.8409">
        <ele>100.225282</ele>
        <time>2020-10-04T12:13:44.869Z</time>
      </trkpt>
      <trkpt lat="62.65562" lon="17.84217">
        <ele>98.591507</ele>
        <time>2020-10-04T12:14:49.840Z</time>
      </trkpt>
      <trkpt lat="62.65373" lon="17.84414">
        <ele>118.023076</ele>
        <time>2020-10-04T12:16:47.854Z</time>
      </trkpt>
      <trkpt lat="62.65217" lon="17.84712">
        <ele>123.574655</ele>
        <time>2020-10-04T12:18:19.857Z</time>
      </trkpt>
      <trkpt lat="62.64957" lon="17.84887">
        <ele>104.10511</ele>
        <time>2020-10-04T12:18:59.836Z</time>
      </trkpt>
      <trkpt lat="62.64702" lon="17.84844">
        <ele>80.306381</ele>
        <time>2020-10-04T12:19:39.854Z</time>
      </trkpt>
      <trkpt lat="62.64482" lon="17.85048">
        <ele>69.671753</ele>
        <time>2020-10-04T12:20:19.839Z</time>
      </trkpt>
      <trkpt lat="62.64269" lon="17.85059">
        <ele>81.54677</ele>
        <time>2020-10-04T12:21:49.843Z</time>
      </trkpt>
      <trkpt lat="62.64065" lon="17.84954">
        <ele>74.000463</ele>
        <time>2020-10-04T12:22:38.849Z</time>
      </trkpt>
      <trkpt lat="62.63847" lon="17.8472">
        <ele>65.140768</ele>
        <time>2020-10-04T12:23:06.849Z</time>
      </trkpt>
      <trkpt lat="62.6371" lon="17.84411">
        <ele>60.961713</ele>
        <time>2020-10-04T12:23:51.877Z</time>
      </trkpt>
      <trkpt lat="62.63723" lon="17.83927">
        <ele>68.12733</ele>
        <time>2020-10-04T12:24:52.833Z</time>
      </trkpt>
      <trkpt lat="62.63773" lon="17.83489">
        <ele>76.490369</ele>
        <time>2020-10-04T12:26:16.841Z</time>
      </trkpt>
      <trkpt lat="62.6381" lon="17.83026">
        <ele>80.640734</ele>
        <time>2020-10-04T12:27:33.839Z</time>
      </trkpt>
      <trkpt lat="62.63802" lon="17.82506">
        <ele>78.551627</ele>
        <time>2020-10-04T12:28:33.824Z</time>
      </trkpt>
      <trkpt lat="62.63739" lon="17.82009">
        <ele>80.933417</ele>
        <time>2020-10-04T12:29:27.851Z</time>
      </trkpt>
      <trkpt lat="62.63661" lon="17.81558">
        <ele>81.748634</ele>
        <time>2020-10-04T12:30:15.829Z</time>
      </trkpt>
      <trkpt lat="62.63508" lon="17.81129">
        <ele>78.206961</ele>
        <time>2020-10-04T12:30:55.828Z</time>
      </trkpt>
      <trkpt lat="62.6336" lon="17.80827">
        <ele>78.058546</ele>
        <time>2020-10-04T12:31:35.854Z</time>
      </trkpt>
      <trkpt lat="62.6325" lon="17.80372">
        <ele>80.404229</ele>
        <time>2020-10-04T12:32:18.848Z</time>
      </trkpt>
      <trkpt lat="62.63215" lon="17.79944">
        <ele>84.870313</ele>
        <time>2020-10-04T12:33:33.844Z</time>
      </trkpt>
      <trkpt lat="62.63146" lon="17.79491">
        <ele>85.168981</ele>
        <time>2020-10-04T12:34:17.829Z</time>
      </trkpt>
      <trkpt lat="62.63072" lon="17.7906">
        <ele>85.232505</ele>
        <time>2020-10-04T12:35:17.849Z</time>
      </trkpt>
      <trkpt lat="62.63011" lon="17.78586">
        <ele>80.167636</ele>
        <time>2020-10-04T12:36:01.847Z</time>
      </trkpt>
      <trkpt lat="62.62779" lon="17.78426">
        <ele>80.64934</ele>
        <time>2020-10-04T12:36:35.856Z</time>
      </trkpt>
      <trkpt lat="62.6264" lon="17.78092">
        <ele>92.583807</ele>
        <time>2020-10-04T12:38:00.835Z</time>
      </trkpt>
      <trkpt lat="62.62449" lon="17.77804">
        <ele>89.05896</ele>
        <time>2020-10-04T12:38:46.813Z</time>
      </trkpt>
      <trkpt lat="62.62238" lon="17.77499">
        <ele>76.980601</ele>
        <time>2020-10-04T12:39:17.834Z</time>
      </trkpt>
      <trkpt lat="62.62069" lon="17.77247">
        <ele>79.058769</ele>
        <time>2020-10-04T12:40:39.827Z</time>
      </trkpt>
      <trkpt lat="62.62116" lon="17.76821">
        <ele>81.272762</ele>
        <time>2020-10-04T12:41:43.842Z</time>
      </trkpt>
      <trkpt lat="62.62147" lon="17.76333">
        <ele>79.799884</ele>
        <time>2020-10-04T12:42:31.830Z</time>
      </trkpt>
      <trkpt lat="62.62164" lon="17.75884">
        <ele>83.879116</ele>
        <time>2020-10-04T12:43:17.843Z</time>
      </trkpt>
      <trkpt lat="62.62192" lon="17.75406">
        <ele>88.87349</ele>
        <time>2020-10-04T12:44:23.862Z</time>
      </trkpt>
      <trkpt lat="62.62225" lon="17.74906">
        <ele>89.4215</ele>
        <time>2020-10-04T12:45:32.843Z</time>
      </trkpt>
      <trkpt lat="62.62312" lon="17.74412">
        <ele>83.452034</ele>
        <time>2020-10-04T12:46:12.850Z</time>
      </trkpt>
      <trkpt lat="62.62405" lon="17.73973">
        <ele>81.990273</ele>
        <time>2020-10-04T12:46:52.838Z</time>
      </trkpt>
      <trkpt lat="62.62478" lon="17.73477">
        <ele>80.304317</ele>
        <time>2020-10-04T12:47:32.842Z</time>
      </trkpt>
      <trkpt lat="62.62545" lon="17.73016">
        <ele>83.361782</ele>
        <time>2020-10-04T12:48:13.852Z</time>
      </trkpt>
      <trkpt lat="62.62707" lon="17.72629">
        <ele>79.287465</ele>
        <time>2020-10-04T12:48:53.847Z</time>
      </trkpt>
      <trkpt lat="62.6289" lon="17.72412">
        <ele>79.407146</ele>
        <time>2020-10-04T12:49:58.852Z</time>
      </trkpt>
      <trkpt lat="62.63019" lon="17.72086">
        <ele>89.321612</ele>
        <time>2020-10-04T12:51:22.844Z</time>
      </trkpt>
      <trkpt lat="62.63123" lon="17.71717">
        <ele>98.695166</ele>
        <time>2020-10-04T12:53:02.857Z</time>
      </trkpt>
      <trkpt lat="62.63172" lon="17.71308">
        <ele>117.202697</ele>
        <time>2020-10-04T12:55:13.864Z</time>
      </trkpt>
      <trkpt lat="62.63302" lon="17.70965">
        <ele>129.610107</ele>
        <time>2020-10-04T12:57:25.859Z</time>
      </trkpt>
      <trkpt lat="62.63422" lon="17.70633">
        <ele>135.221377</ele>
        <time>2020-10-04T12:59:06.849Z</time>
      </trkpt>
      <trkpt lat="62.63512" lon="17.70115">
        <ele>128.001886</ele>
        <time>2020-10-04T12:59:53.845Z</time>
      </trkpt>
      <trkpt lat="62.63604" lon="17.69541">
        <ele>112.815666</ele>
        <time>2020-10-04T13:00:27.828Z</time>
      </trkpt>
      <trkpt lat="62.63683" lon="17.68963">
        <ele>102.741011</ele>
        <time>2020-10-04T13:01:02.849Z</time>
      </trkpt>
      <trkpt lat="62.63743" lon="17.68386">
        <ele>91.200385</ele>
        <time>2020-10-04T13:01:35.838Z</time>
      </trkpt>
      <trkpt lat="62.63752" lon="17.67869">
        <ele>85.647871</ele>
        <time>2020-10-04T13:02:10.842Z</time>
      </trkpt>
      <trkpt lat="62.63825" lon="17.67324">
        <ele>83.839713</ele>
        <time>2020-10-04T13:02:50.832Z</time>
      </trkpt>
      <trkpt lat="62.6392" lon="17.66937">
        <ele>85.994165</ele>
        <time>2020-10-04T13:20:04.621Z</time>
      </trkpt>
      <trkpt lat="62.63932" lon="17.66468">
        <ele>89.669368</ele>
        <time>2020-10-04T13:21:17.624Z</time>
      </trkpt>
      <trkpt lat="62.6402" lon="17.66045">
        <ele>90.7904</ele>
        <time>2020-10-04T13:22:15.641Z</time>
      </trkpt>
      <trkpt lat="62.64162" lon="17.65641">
        <ele>87.615756</ele>
        <time>2020-10-04T13:23:06.633Z</time>
      </trkpt>
      <trkpt lat="62.64207" lon="17.65198">
        <ele>85.119622</ele>
        <time>2020-10-04T13:23:49.634Z</time>
      </trkpt>
      <trkpt lat="62.64232" lon="17.64672">
        <ele>83.28365</ele>
        <time>2020-10-04T13:24:31.648Z</time>
      </trkpt>
      <trkpt lat="62.64276" lon="17.64205">
        <ele>81.788828</ele>
        <time>2020-10-04T13:25:13.627Z</time>
      </trkpt>
      <trkpt lat="62.64321" lon="17.63712">
        <ele>86.095987</ele>
        <time>2020-10-04T13:26:22.643Z</time>
      </trkpt>
      <trkpt lat="62.64267" lon="17.63317">
        <ele>95.955989</ele>
        <time>2020-10-04T13:27:55.658Z</time>
      </trkpt>
      <trkpt lat="62.64138" lon="17.63">
        <ele>110.91654</ele>
        <time>2020-10-04T13:30:08.634Z</time>
      </trkpt>
      <trkpt lat="62.64008" lon="17.62686">
        <ele>127.956057</ele>
        <time>2020-10-04T13:32:07.618Z</time>
      </trkpt>
      <trkpt lat="62.63844" lon="17.62391">
        <ele>130.332163</ele>
        <time>2020-10-04T13:33:26.628Z</time>
      </trkpt>
      <trkpt lat="62.63687" lon="17.62117">
        <ele>141.81652</ele>
        <time>2020-10-04T13:35:02.637Z</time>
      </trkpt>
      <trkpt lat="62.63613" lon="17.61688">
        <ele>147.503861</ele>
        <time>2020-10-04T13:36:58.634Z</time>
      </trkpt>
      <trkpt lat="62.63521" lon="17.61277">
        <ele>153.732062</ele>
        <time>2020-10-04T13:38:06.630Z</time>
      </trkpt>
      <trkpt lat="62.63449" lon="17.6087">
        <ele>160.101433</ele>
        <time>2020-10-04T13:39:42.621Z</time>
      </trkpt>
      <trkpt lat="62.63345" lon="17.60413">
        <ele>156.183857</ele>
        <time>2020-10-04T13:40:26.632Z</time>
      </trkpt>
      <trkpt lat="62.63166" lon="17.60123">
        <ele>161.677832</ele>
        <time>2020-10-04T13:41:42.637Z</time>
      </trkpt>
      <trkpt lat="62.63035" lon="17.59872">
        <ele>172.159252</ele>
        <time>2020-10-04T13:43:40.636Z</time>
      </trkpt>
      <trkpt lat="62.63058" lon="17.59415">
        <ele>180.222117</ele>
        <time>2020-10-04T13:44:57.640Z</time>
      </trkpt>
      <trkpt lat="62.63041" lon="17.5899">
        <ele>190.868633</ele>
        <time>2020-10-04T13:46:23.665Z</time>
      </trkpt>
      <trkpt lat="62.62975" lon="17.58555">
        <ele>188.640761</ele>
        <time>2020-10-04T13:47:31.645Z</time>
      </trkpt>
      <trkpt lat="62.62878" lon="17.58121">
        <ele>194.594018</ele>
        <time>2020-10-04T13:48:28.633Z</time>
      </trkpt>
      <trkpt lat="62.62777" lon="17.57694">
        <ele>197.383799</ele>
        <time>2020-10-04T13:49:36.624Z</time>
      </trkpt>
      <trkpt lat="62.62693" lon="17.57192">
        <ele>188.272761</ele>
        <time>2020-10-04T13:50:14.619Z</time>
      </trkpt>
      <trkpt lat="62.62678" lon="17.56759">
        <ele>189.322173</ele>
        <time>2020-10-04T13:51:22.635Z</time>
      </trkpt>
      <trkpt lat="62.62835" lon="17.56431">
        <ele>182.536545</ele>
        <time>2020-10-04T13:52:14.665Z</time>
      </trkpt>
      <trkpt lat="62.6301" lon="17.56067">
        <ele>183.367814</ele>
        <time>2020-10-04T13:53:06.641Z</time>
      </trkpt>
      <trkpt lat="62.63138" lon="17.55705">
        <ele>187.456955</ele>
        <time>2020-10-04T13:54:19.632Z</time>
      </trkpt>
      <trkpt lat="62.63208" lon="17.55284">
        <ele>193.928125</ele>
        <time>2020-10-04T13:55:58.648Z</time>
      </trkpt>
      <trkpt lat="62.63255" lon="17.54833">
        <ele>204.834288</ele>
        <time>2020-10-04T13:57:08.636Z</time>
      </trkpt>
      <trkpt lat="62.63331" lon="17.54444">
        <ele>215.919564</ele>
        <time>2020-10-04T13:58:55.649Z</time>
      </trkpt>
      <trkpt lat="62.63505" lon="17.54056">
        <ele>208.068323</ele>
        <time>2020-10-04T13:59:44.671Z</time>
      </trkpt>
      <trkpt lat="62.63665" lon="17.53717">
        <ele>211.12713</ele>
        <time>2020-10-04T14:00:55.629Z</time>
      </trkpt>
      <trkpt lat="62.63827" lon="17.53353">
        <ele>206.384313</ele>
        <time>2020-10-04T14:01:30.626Z</time>
      </trkpt>
      <trkpt lat="62.63947" lon="17.52898">
        <ele>200.811438</ele>
        <time>2020-10-04T14:02:00.645Z</time>
      </trkpt>
      <trkpt lat="62.63881" lon="17.52472">
        <ele>209.883879</ele>
        <time>2020-10-04T14:03:18.633Z</time>
      </trkpt>
      <trkpt lat="62.63909" lon="17.52019">
        <ele>204.697666</ele>
        <time>2020-10-04T14:04:05.643Z</time>
      </trkpt>
      <trkpt lat="62.6407" lon="17.51673">
        <ele>205.55916</ele>
        <time>2020-10-04T14:05:06.643Z</time>
      </trkpt>
      <trkpt lat="62.64177" lon="17.51314">
        <ele>220.229496</ele>
        <time>2020-10-04T14:07:21.661Z</time>
      </trkpt>
      <trkpt lat="62.64273" lon="17.50945">
        <ele>231.980846</ele>
        <time>2020-10-04T14:09:23.674Z</time>
      </trkpt>
      <trkpt lat="62.64273" lon="17.50546">
        <ele>242.503186</ele>
        <time>2020-10-04T14:11:12.638Z</time>
      </trkpt>
      <trkpt lat="62.64112" lon="17.50341">
        <ele>255.675765</ele>
        <time>2020-10-04T14:13:38.628Z</time>
      </trkpt>
      <trkpt lat="62.63924" lon="17.50097">
        <ele>255.966842</ele>
        <time>2020-10-04T14:14:35.646Z</time>
      </trkpt>
      <trkpt lat="62.63682" lon="17.497">
        <ele>241.188332</ele>
        <time>2020-10-04T14:15:14.641Z</time>
      </trkpt>
      <trkpt lat="62.6344" lon="17.4947">
        <ele>229.802244</ele>
        <time>2020-10-04T14:15:51.647Z</time>
      </trkpt>
      <trkpt lat="62.63237" lon="17.493">
        <ele>230.854419</ele>
        <time>2020-10-04T14:16:53.641Z</time>
      </trkpt>
      <trkpt lat="62.63021" lon="17.49097">
        <ele>225.863408</ele>
        <time>2020-10-04T14:17:29.673Z</time>
      </trkpt>
      <trkpt lat="62.62834" lon="17.48839">
        <ele>227.362085</ele>
        <time>2020-10-04T14:18:28.632Z</time>
      </trkpt>
      <trkpt lat="62.62794" lon="17.48336">
        <ele>220.590619</ele>
        <time>2020-10-04T14:19:10.637Z</time>
      </trkpt>
      <trkpt lat="62.62752" lon="17.4783">
        <ele>218.824327</ele>
        <time>2020-10-04T14:19:50.633Z</time>
      </trkpt>
      <trkpt lat="62.62672" lon="17.47276">
        <ele>218.175329</ele>
        <time>2020-10-04T14:20:30.647Z</time>
      </trkpt>
      <trkpt lat="62.6259" lon="17.46732">
        <ele>207.397942</ele>
        <time>2020-10-04T14:21:01.655Z</time>
      </trkpt>
      <trkpt lat="62.62569" lon="17.46115">
        <ele>190.715985</ele>
        <time>2020-10-04T14:21:40.649Z</time>
      </trkpt>
      <trkpt lat="62.62436" lon="17.45603">
        <ele>186.224858</ele>
        <time>2020-10-04T14:22:24.651Z</time>
      </trkpt>
      <trkpt lat="62.62337" lon="17.45169">
        <ele>192.766038</ele>
        <time>2020-10-04T14:23:05.671Z</time>
      </trkpt>
      <trkpt lat="62.62282" lon="17.44682">
        <ele>189.906619</ele>
        <time>2020-10-04T14:23:47.641Z</time>
      </trkpt>
      <trkpt lat="62.6232" lon="17.44104">
        <ele>176.271923</ele>
        <time>2020-10-04T14:24:22.658Z</time>
      </trkpt>
      <trkpt lat="62.62346" lon="17.43602">
        <ele>168.26814</ele>
        <time>2020-10-04T14:25:04.643Z</time>
      </trkpt>
      <trkpt lat="62.62319" lon="17.42961">
        <ele>157.807113</ele>
        <time>2020-10-04T14:25:44.653Z</time>
      </trkpt>
      <trkpt lat="62.6229" lon="17.42311">
        <ele>139.901626</ele>
        <time>2020-10-04T14:26:21.651Z</time>
      </trkpt>
      <trkpt lat="62.62151" lon="17.41782">
        <ele>127.230011</ele>
        <time>2020-10-04T14:26:56.652Z</time>
      </trkpt>
      <trkpt lat="62.61971" lon="17.41651">
        <ele>119.422609</ele>
        <time>2020-10-04T14:27:16.681Z</time>
      </trkpt>
      <trkpt lat="62.61762" lon="17.41538">
        <ele>105.95213</ele>
        <time>2020-10-04T14:27:38.621Z</time>
      </trkpt>
      <trkpt lat="62.61487" lon="17.41386">
        <ele>91.536279</ele>
        <time>2020-10-04T14:28:14.688Z</time>
      </trkpt>
      <trkpt lat="62.61157" lon="17.41314">
        <ele>84.672071</ele>
        <time>2020-10-04T14:28:53.657Z</time>
      </trkpt>
      <trkpt lat="62.60912" lon="17.41278">
        <ele>78.545751</ele>
        <time>2020-10-04T14:29:20.654Z</time>
      </trkpt>
      <trkpt lat="62.60693" lon="17.4118">
        <ele>62.204135</ele>
        <time>2020-10-04T14:29:46.639Z</time>
      </trkpt>
      <trkpt lat="62.60487" lon="17.40852">
        <ele>51.334595</ele>
        <time>2020-10-04T14:30:20.644Z</time>
      </trkpt>
      <trkpt lat="62.60291" lon="17.40774">
        <ele>56.598411</ele>
        <time>2020-10-04T14:31:36.684Z</time>
      </trkpt>
      <trkpt lat="62.60064" lon="17.40793">
        <ele>57.584095</ele>
        <time>2020-10-04T14:32:38.634Z</time>
      </trkpt>
      <trkpt lat="62.5985" lon="17.41029">
        <ele>57.958708</ele>
        <time>2020-10-04T14:33:35.639Z</time>
      </trkpt>
      <trkpt lat="62.5967" lon="17.41278">
        <ele>64.661631</ele>
        <time>2020-10-04T14:34:49.660Z</time>
      </trkpt>
      <trkpt lat="62.5947" lon="17.41406">
        <ele>75.305987</ele>
        <time>2020-10-04T14:36:15.640Z</time>
      </trkpt>
      <trkpt lat="62.59253" lon="17.41497">
        <ele>77.850578</ele>
        <time>2020-10-04T14:37:20.630Z</time>
      </trkpt>
      <trkpt lat="62.59043" lon="17.41642">
        <ele>80.191995</ele>
        <time>2020-10-04T14:38:17.664Z</time>
      </trkpt>
      <trkpt lat="62.58843" lon="17.41735">
        <ele>93.549953</ele>
        <time>2020-10-04T14:39:31.640Z</time>
      </trkpt>
      <trkpt lat="62.58559" lon="17.41756">
        <ele>82.263688</ele>
        <time>2020-10-04T14:40:11.634Z</time>
      </trkpt>
      <trkpt lat="62.58309" lon="17.41791">
        <ele>75.911372</ele>
        <time>2020-10-04T14:40:56.654Z</time>
      </trkpt>
      <trkpt lat="62.58092" lon="17.41838">
        <ele>81.901043</ele>
        <time>2020-10-04T14:41:57.713Z</time>
      </trkpt>
      <trkpt lat="62.57866" lon="17.41792">
        <ele>81.751816</ele>
        <time>2020-10-04T14:42:55.641Z</time>
      </trkpt>
      <trkpt lat="62.5766" lon="17.41707">
        <ele>79.75923</ele>
        <time>2020-10-04T14:43:41.649Z</time>
      </trkpt>
      <trkpt lat="62.57452" lon="17.41651">
        <ele>74.543755</ele>
        <time>2020-10-04T14:44:29.675Z</time>
      </trkpt>
      <trkpt lat="62.57243" lon="17.41594">
        <ele>70.182473</ele>
        <time>2020-10-04T14:45:09.654Z</time>
      </trkpt>
      <trkpt lat="62.57013" lon="17.41519">
        <ele>70.386055</ele>
        <time>2020-10-04T14:45:49.695Z</time>
      </trkpt>
      <trkpt lat="62.56766" lon="17.41537">
        <ele>72.876418</ele>
        <time>2020-10-04T14:46:31.658Z</time>
      </trkpt>
      <trkpt lat="62.56544" lon="17.41527">
        <ele>66.911914</ele>
        <time>2020-10-04T14:47:11.671Z</time>
      </trkpt>
      <trkpt lat="62.56286" lon="17.41505">
        <ele>56.005507</ele>
        <time>2020-10-04T14:47:43.638Z</time>
      </trkpt>
      <trkpt lat="62.56047" lon="17.41433">
        <ele>44.303298</ele>
        <time>2020-10-04T14:48:03.646Z</time>
      </trkpt>
      <trkpt lat="62.55879" lon="17.41099">
        <ele>36.860192</ele>
        <time>2020-10-04T14:48:23.647Z</time>
      </trkpt>
      <trkpt lat="62.55663" lon="17.40782">
        <ele>33.490404</ele>
        <time>2020-10-04T14:48:58.650Z</time>
      </trkpt>
      <trkpt lat="62.55467" lon="17.40565">
        <ele>39.008056</ele>
        <time>2020-10-04T14:49:39.661Z</time>
      </trkpt>
      <trkpt lat="62.5528" lon="17.40385">
        <ele>43.572411</ele>
        <time>2020-10-04T14:50:41.675Z</time>
      </trkpt>
      <trkpt lat="62.5508" lon="17.40282">
        <ele>40.570331</ele>
        <time>2020-10-04T14:51:41.654Z</time>
      </trkpt>
      <trkpt lat="62.55156" lon="17.40451">
        <ele>34.134883</ele>
        <time>2020-10-04T14:52:23.633Z</time>
      </trkpt>
      <trkpt lat="62.55015" lon="17.40549">
        <ele>38.661378</ele>
        <time>2020-10-04T14:58:14.658Z</time>
      </trkpt>
      <trkpt lat="62.54807" lon="17.40525">
        <ele>43.47007</ele>
        <time>2020-10-04T14:59:21.672Z</time>
      </trkpt>
      <trkpt lat="62.54613" lon="17.40343">
        <ele>46.429645</ele>
        <time>2020-10-04T15:00:15.657Z</time>
      </trkpt>
      <trkpt lat="62.54403" lon="17.40153">
        <ele>43.296848</ele>
        <time>2020-10-04T15:01:05.677Z</time>
      </trkpt>
      <trkpt lat="62.54204" lon="17.39922">
        <ele>35.910887</ele>
        <time>2020-10-04T15:01:45.673Z</time>
      </trkpt>
      <trkpt lat="62.54023" lon="17.39731">
        <ele>37.966647</ele>
        <time>2020-10-04T15:02:28.663Z</time>
      </trkpt>
      <trkpt lat="62.53828" lon="17.39524">
        <ele>43.183715</ele>
        <time>2020-10-04T15:03:34.646Z</time>
      </trkpt>
      <trkpt lat="62.53645" lon="17.39327">
        <ele>50.41637</ele>
        <time>2020-10-04T15:04:56.649Z</time>
      </trkpt>
      <trkpt lat="62.53431" lon="17.39091">
        <ele>53.327686</ele>
        <time>2020-10-04T15:05:56.655Z</time>
      </trkpt>
      <trkpt lat="62.53295" lon="17.39263">
        <ele>57.900018</ele>
        <time>2020-10-04T15:07:03.666Z</time>
      </trkpt>
      <trkpt lat="62.53089" lon="17.39088">
        <ele>56.274505</ele>
        <time>2020-10-04T15:08:09.677Z</time>
      </trkpt>
      <trkpt lat="62.52894" lon="17.389">
        <ele>53.698074</ele>
        <time>2020-10-04T15:09:07.645Z</time>
      </trkpt>
      <trkpt lat="62.52731" lon="17.38733">
        <ele>52.734967</ele>
        <time>2020-10-04T15:10:04.645Z</time>
      </trkpt>
      <trkpt lat="62.52513" lon="17.38702">
        <ele>52.208595</ele>
        <time>2020-10-04T15:11:00.668Z</time>
      </trkpt>
      <trkpt lat="62.52307" lon="17.38656">
        <ele>52.268602</ele>
        <time>2020-10-04T15:12:14.692Z</time>
      </trkpt>
      <trkpt lat="62.52103" lon="17.38744">
        <ele>48.486537</ele>
        <time>2020-10-04T15:13:04.684Z</time>
      </trkpt>
      <trkpt lat="62.51901" lon="17.38998">
        <ele>56.804449</ele>
        <time>2020-10-04T15:14:05.654Z</time>
      </trkpt>
      <trkpt lat="62.5176" lon="17.38818">
        <ele>64.436318</ele>
        <time>2020-10-04T15:15:32.695Z</time>
      </trkpt>
      <trkpt lat="62.51651" lon="17.38424">
        <ele>63.431777</ele>
        <time>2020-10-04T15:16:16.649Z</time>
      </trkpt>
      <trkpt lat="62.51605" lon="17.38087">
        <ele>58.005842</ele>
        <time>2020-10-04T15:16:58.655Z</time>
      </trkpt>
      <trkpt lat="62.5142" lon="17.37905">
        <ele>59.809139</ele>
        <time>2020-10-04T15:17:59.669Z</time>
      </trkpt>
      <trkpt lat="62.5125" lon="17.37601">
        <ele>62.488794</ele>
        <time>2020-10-04T15:18:50.660Z</time>
      </trkpt>
      <trkpt lat="62.5107" lon="17.3728">
        <ele>64.174425</ele>
        <time>2020-10-04T15:19:47.662Z</time>
      </trkpt>
      <trkpt lat="62.50888" lon="17.37184">
        <ele>66.038584</ele>
        <time>2020-10-04T15:20:49.666Z</time>
      </trkpt>
      <trkpt lat="62.50676" lon="17.37343">
        <ele>57.003242</ele>
        <time>2020-10-04T15:21:41.647Z</time>
      </trkpt>
      <trkpt lat="62.5048" lon="17.37424">
        <ele>57.413391</ele>
        <time>2020-10-04T15:22:22.638Z</time>
      </trkpt>
      <trkpt lat="62.50279" lon="17.37349">
        <ele>56.757871</ele>
        <time>2020-10-04T15:23:03.641Z</time>
      </trkpt>
      <trkpt lat="62.50154" lon="17.36998">
        <ele>52.002243</ele>
        <time>2020-10-04T15:23:43.661Z</time>
      </trkpt>
      <trkpt lat="62.50032" lon="17.36445">
        <ele>47.305919</ele>
        <time>2020-10-04T15:24:23.698Z</time>
      </trkpt>
      <trkpt lat="62.4996" lon="17.36003">
        <ele>51.045285</ele>
        <time>2020-10-04T15:25:09.680Z</time>
      </trkpt>
      <trkpt lat="62.49872" lon="17.35622">
        <ele>56.367812</ele>
        <time>2020-10-04T15:25:51.651Z</time>
      </trkpt>
      <trkpt lat="62.49817" lon="17.35142">
        <ele>56.353098</ele>
        <time>2020-10-04T15:26:50.649Z</time>
      </trkpt>
      <trkpt lat="62.4975" lon="17.34732">
        <ele>52.639968</ele>
        <time>2020-10-04T15:27:31.673Z</time>
      </trkpt>
      <trkpt lat="62.49669" lon="17.34325">
        <ele>51.184698</ele>
        <time>2020-10-04T15:28:17.654Z</time>
      </trkpt>
      <trkpt lat="62.49463" lon="17.34233">
        <ele>49.817911</ele>
        <time>2020-10-04T15:29:02.662Z</time>
      </trkpt>
      <trkpt lat="62.49278" lon="17.33969">
        <ele>46.221612</ele>
        <time>2020-10-04T15:29:45.659Z</time>
      </trkpt>
      <trkpt lat="62.49208" lon="17.33846">
        <ele>50.079248</ele>
        <time>2020-10-04T15:31:43.652Z</time>
      </trkpt>
      <trkpt lat="62.49268" lon="17.33855">
        <ele>46.919033</ele>
        <time>2020-10-04T15:32:57.669Z</time>
      </trkpt>
      <trkpt lat="62.4914" lon="17.33533">
        <ele>56.219593</ele>
        <time>2020-10-04T15:34:10.658Z</time>
      </trkpt>
      <trkpt lat="62.49005" lon="17.33129">
        <ele>57.638158</ele>
        <time>2020-10-04T15:35:07.661Z</time>
      </trkpt>
      <trkpt lat="62.48884" lon="17.32766">
        <ele>63.64066</ele>
        <time>2020-10-04T15:36:19.682Z</time>
      </trkpt>
      <trkpt lat="62.48689" lon="17.32543">
        <ele>64.256227</ele>
        <time>2020-10-04T15:37:36.673Z</time>
      </trkpt>
      <trkpt lat="62.48612" lon="17.32409">
        <ele>63.32814</ele>
        <time>2020-10-04T15:56:20.655Z</time>
      </trkpt>
      <trkpt lat="62.48447" lon="17.32288">
        <ele>70.646116</ele>
        <time>2020-10-04T15:57:59.663Z</time>
      </trkpt>
      <trkpt lat="62.48586" lon="17.32292">
        <ele>68.542363</ele>
        <time>2020-10-04T16:02:55.664Z</time>
      </trkpt>
      <trkpt lat="62.48567" lon="17.32297">
        <ele>64.538011</ele>
        <time>2020-10-04T16:05:45.663Z</time>
      </trkpt>
    </trkseg>
  </trk>
</gpx>